sensor_id;sensor_type;location;lat;lon;timestamp;P1;durP1;ratioP1;P2;durP2;ratioP2
23543;SDS011;11950;51.230;4.012;2023-05-23T00:00:59;40.88;;;18.70;;
23543;SDS011;11950;51.230;4.012;2023-05-23T00:03:25;36.38;;;17.45;;
23543;SDS011;11950;51.230;4.012;2023-05-23T00:05:53;33.45;;;16.52;;
23543;SDS011;11950;51.230;4.012;2023-05-23T00:08:21;39.08;;;17.35;;
23543;SDS011;11950;51.230;4.012;2023-05-23T00:10:47;32.63;;;17.48;;
23543;SDS011;11950;51.230;4.012;2023-05-23T00:13:13;33.63;;;17.30;;
23543;SDS011;11950;51.230;4.012;2023-05-23T00:15:40;31.80;;;16.67;;
23543;SDS011;11950;51.230;4.012;2023-05-23T00:18:07;24.90;;;16.05;;
23543;SDS011;11950;51.230;4.012;2023-05-23T00:20:36;28.38;;;15.00;;
23543;SDS011;11950;51.230;4.012;2023-05-23T00:23:05;22.10;;;13.45;;
23543;SDS011;11950;51.230;4.012;2023-05-23T00:25:33;24.70;;;12.27;;
23543;SDS011;11950;51.230;4.012;2023-05-23T00:28:00;22.70;;;11.77;;
23543;SDS011;11950;51.230;4.012;2023-05-23T00:30:28;22.70;;;11.90;;
23543;SDS011;11950;51.230;4.012;2023-05-23T00:32:56;24.75;;;12.50;;
23543;SDS011;11950;51.230;4.012;2023-05-23T00:35:23;25.13;;;12.75;;
23543;SDS011;11950;51.230;4.012;2023-05-23T00:37:50;23.90;;;12.52;;
23543;SDS011;11950;51.230;4.012;2023-05-23T00:40:17;23.70;;;12.18;;
23543;SDS011;11950;51.230;4.012;2023-05-23T00:42:44;25.48;;;13.25;;
23543;SDS011;11950;51.230;4.012;2023-05-23T00:45:10;21.70;;;11.60;;
23543;SDS011;11950;51.230;4.012;2023-05-23T00:47:40;21.65;;;11.82;;
23543;SDS011;11950;51.230;4.012;2023-05-23T00:50:10;21.90;;;10.68;;
23543;SDS011;11950;51.230;4.012;2023-05-23T00:52:39;17.48;;;9.75;;
23543;SDS011;11950;51.230;4.012;2023-05-23T00:55:06;16.70;;;9.40;;
23543;SDS011;11950;51.230;4.012;2023-05-23T00:57:33;17.77;;;10.05;;
23543;SDS011;11950;51.230;4.012;2023-05-23T01:00:00;16.92;;;9.63;;
23543;SDS011;11950;51.230;4.012;2023-05-23T01:02:27;15.00;;;8.68;;
23543;SDS011;11950;51.230;4.012;2023-05-23T01:04:54;17.80;;;8.35;;
23543;SDS011;11950;51.230;4.012;2023-05-23T01:07:21;17.85;;;9.20;;
23543;SDS011;11950;51.230;4.012;2023-05-23T01:09:47;20.92;;;9.02;;
23543;SDS011;11950;51.230;4.012;2023-05-23T01:15:05;21.00;;;9.90;;
23543;SDS011;11950;51.230;4.012;2023-05-23T01:20:17;23.45;;;9.98;;
23543;SDS011;11950;51.230;4.012;2023-05-23T01:28:02;22.77;;;9.50;;
23543;SDS011;11950;51.230;4.012;2023-05-23T01:30:31;26.02;;;11.15;;
23543;SDS011;11950;51.230;4.012;2023-05-23T01:33:00;25.80;;;10.63;;
23543;SDS011;11950;51.230;4.012;2023-05-23T01:35:27;24.70;;;11.45;;
23543;SDS011;11950;51.230;4.012;2023-05-23T01:37:54;24.25;;;11.45;;
23543;SDS011;11950;51.230;4.012;2023-05-23T01:40:23;24.05;;;11.52;;
23543;SDS011;11950;51.230;4.012;2023-05-23T01:42:50;28.35;;;12.00;;
23543;SDS011;11950;51.230;4.012;2023-05-23T01:45:18;25.17;;;12.57;;
23543;SDS011;11950;51.230;4.012;2023-05-23T01:47:45;24.63;;;12.65;;
23543;SDS011;11950;51.230;4.012;2023-05-23T01:50:15;30.58;;;13.75;;
23543;SDS011;11950;51.230;4.012;2023-05-23T01:52:42;26.23;;;13.02;;
23543;SDS011;11950;51.230;4.012;2023-05-23T01:55:09;29.10;;;13.85;;
23543;SDS011;11950;51.230;4.012;2023-05-23T01:57:38;26.95;;;14.23;;
23543;SDS011;11950;51.230;4.012;2023-05-23T02:00:05;26.70;;;13.73;;
23543;SDS011;11950;51.230;4.012;2023-05-23T02:02:39;27.05;;;13.55;;
23543;SDS011;11950;51.230;4.012;2023-05-23T02:05:05;30.27;;;13.85;;
23543;SDS011;11950;51.230;4.012;2023-05-23T02:07:32;23.83;;;13.20;;
23543;SDS011;11950;51.230;4.012;2023-05-23T02:09:58;26.77;;;13.02;;
23543;SDS011;11950;51.230;4.012;2023-05-23T02:12:24;27.48;;;12.45;;
23543;SDS011;11950;51.230;4.012;2023-05-23T02:14:52;24.75;;;12.57;;
23543;SDS011;11950;51.230;4.012;2023-05-23T02:17:19;26.95;;;13.77;;
23543;SDS011;11950;51.230;4.012;2023-05-23T02:19:48;33.78;;;14.60;;
23543;SDS011;11950;51.230;4.012;2023-05-23T02:22:15;26.42;;;13.75;;
23543;SDS011;11950;51.230;4.012;2023-05-23T02:24:41;30.08;;;13.40;;
23543;SDS011;11950;51.230;4.012;2023-05-23T02:27:07;33.40;;;15.30;;
23543;SDS011;11950;51.230;4.012;2023-05-23T02:29:34;29.60;;;13.93;;
23543;SDS011;11950;51.230;4.012;2023-05-23T02:32:00;27.80;;;13.55;;
23543;SDS011;11950;51.230;4.012;2023-05-23T02:34:26;33.30;;;14.10;;
23543;SDS011;11950;51.230;4.012;2023-05-23T02:36:52;31.77;;;13.98;;
23543;SDS011;11950;51.230;4.012;2023-05-23T02:39:19;30.15;;;13.90;;
23543;SDS011;11950;51.230;4.012;2023-05-23T02:41:45;28.95;;;15.13;;
23543;SDS011;11950;51.230;4.012;2023-05-23T02:44:11;32.13;;;14.32;;
23543;SDS011;11950;51.230;4.012;2023-05-23T02:46:38;28.15;;;13.55;;
23543;SDS011;11950;51.230;4.012;2023-05-23T02:49:04;22.38;;;12.52;;
23543;SDS011;11950;51.230;4.012;2023-05-23T02:51:31;25.88;;;11.63;;
23543;SDS011;11950;51.230;4.012;2023-05-23T02:53:58;19.23;;;10.95;;
23543;SDS011;11950;51.230;4.012;2023-05-23T02:56:24;21.88;;;10.80;;
23543;SDS011;11950;51.230;4.012;2023-05-23T02:58:51;22.52;;;11.57;;
23543;SDS011;11950;51.230;4.012;2023-05-23T03:01:18;22.65;;;12.27;;
23543;SDS011;11950;51.230;4.012;2023-05-23T03:03:44;19.40;;;12.15;;
23543;SDS011;11950;51.230;4.012;2023-05-23T03:06:11;21.77;;;12.68;;
23543;SDS011;11950;51.230;4.012;2023-05-23T03:08:40;19.88;;;13.02;;
23543;SDS011;11950;51.230;4.012;2023-05-23T03:11:07;22.98;;;13.43;;
23543;SDS011;11950;51.230;4.012;2023-05-23T03:13:34;24.17;;;13.95;;
23543;SDS011;11950;51.230;4.012;2023-05-23T03:16:00;22.67;;;13.32;;
23543;SDS011;11950;51.230;4.012;2023-05-23T03:18:27;20.05;;;12.52;;
23543;SDS011;11950;51.230;4.012;2023-05-23T03:20:54;23.88;;;13.48;;
23543;SDS011;11950;51.230;4.012;2023-05-23T03:23:22;28.10;;;12.20;;
23543;SDS011;11950;51.230;4.012;2023-05-23T03:25:48;29.45;;;12.60;;
23543;SDS011;11950;51.230;4.012;2023-05-23T03:28:15;26.70;;;11.93;;
23543;SDS011;11950;51.230;4.012;2023-05-23T03:30:41;26.73;;;11.43;;
23543;SDS011;11950;51.230;4.012;2023-05-23T03:33:07;25.27;;;11.50;;
23543;SDS011;11950;51.230;4.012;2023-05-23T03:35:33;23.17;;;9.82;;
23543;SDS011;11950;51.230;4.012;2023-05-23T03:38:00;20.15;;;10.77;;
23543;SDS011;11950;51.230;4.012;2023-05-23T03:40:26;28.50;;;10.55;;
23543;SDS011;11950;51.230;4.012;2023-05-23T03:43:02;25.90;;;10.75;;
23543;SDS011;11950;51.230;4.012;2023-05-23T03:45:35;24.23;;;9.27;;
23543;SDS011;11950;51.230;4.012;2023-05-23T03:48:06;23.42;;;9.15;;
23543;SDS011;11950;51.230;4.012;2023-05-23T03:50:32;24.95;;;9.77;;
23543;SDS011;11950;51.230;4.012;2023-05-23T03:52:59;28.40;;;9.82;;
23543;SDS011;11950;51.230;4.012;2023-05-23T03:55:25;22.45;;;8.32;;
23543;SDS011;11950;51.230;4.012;2023-05-23T03:57:51;26.05;;;8.73;;
23543;SDS011;11950;51.230;4.012;2023-05-23T04:00:18;22.33;;;7.93;;
23543;SDS011;11950;51.230;4.012;2023-05-23T04:02:48;21.42;;;8.35;;
23543;SDS011;11950;51.230;4.012;2023-05-23T04:05:17;19.08;;;7.18;;
23543;SDS011;11950;51.230;4.012;2023-05-23T04:07:45;18.70;;;7.28;;
23543;SDS011;11950;51.230;4.012;2023-05-23T04:10:11;23.92;;;7.45;;
23543;SDS011;11950;51.230;4.012;2023-05-23T04:12:39;19.33;;;6.80;;
23543;SDS011;11950;51.230;4.012;2023-05-23T04:15:12;17.90;;;6.30;;
23543;SDS011;11950;51.230;4.012;2023-05-23T04:17:49;16.85;;;6.45;;
23543;SDS011;11950;51.230;4.012;2023-05-23T04:20:17;22.73;;;7.45;;
23543;SDS011;11950;51.230;4.012;2023-05-23T04:22:43;18.83;;;7.35;;
23543;SDS011;11950;51.230;4.012;2023-05-23T04:25:11;18.55;;;6.95;;
23543;SDS011;11950;51.230;4.012;2023-05-23T04:27:45;30.88;;;7.82;;
23543;SDS011;11950;51.230;4.012;2023-05-23T04:30:12;19.77;;;7.57;;
23543;SDS011;11950;51.230;4.012;2023-05-23T04:32:41;20.88;;;7.38;;
23543;SDS011;11950;51.230;4.012;2023-05-23T04:35:09;15.15;;;7.15;;
23543;SDS011;11950;51.230;4.012;2023-05-23T04:37:38;23.83;;;7.57;;
23543;SDS011;11950;51.230;4.012;2023-05-23T04:40:06;25.20;;;7.70;;
23543;SDS011;11950;51.230;4.012;2023-05-23T04:42:56;21.55;;;7.65;;
23543;SDS011;11950;51.230;4.012;2023-05-23T04:45:47;19.30;;;7.25;;
23543;SDS011;11950;51.230;4.012;2023-05-23T04:48:37;24.50;;;7.05;;
23543;SDS011;11950;51.230;4.012;2023-05-23T04:51:03;20.17;;;6.97;;
23543;SDS011;11950;51.230;4.012;2023-05-23T04:53:35;19.65;;;6.55;;
23543;SDS011;11950;51.230;4.012;2023-05-23T04:56:02;21.55;;;7.63;;
23543;SDS011;11950;51.230;4.012;2023-05-23T04:58:29;19.00;;;7.95;;
23543;SDS011;11950;51.230;4.012;2023-05-23T05:01:00;19.23;;;7.30;;
23543;SDS011;11950;51.230;4.012;2023-05-23T05:03:27;20.83;;;7.55;;
23543;SDS011;11950;51.230;4.012;2023-05-23T05:05:53;16.60;;;7.30;;
23543;SDS011;11950;51.230;4.012;2023-05-23T05:08:19;18.27;;;6.65;;
23543;SDS011;11950;51.230;4.012;2023-05-23T05:10:46;18.65;;;7.95;;
23543;SDS011;11950;51.230;4.012;2023-05-23T05:13:14;12.75;;;6.07;;
23543;SDS011;11950;51.230;4.012;2023-05-23T05:15:47;16.45;;;6.82;;
23543;SDS011;11950;51.230;4.012;2023-05-23T05:18:13;13.23;;;5.20;;
23543;SDS011;11950;51.230;4.012;2023-05-23T05:20:41;13.63;;;5.47;;
23543;SDS011;11950;51.230;4.012;2023-05-23T05:23:07;12.73;;;5.60;;
23543;SDS011;11950;51.230;4.012;2023-05-23T05:25:35;12.82;;;5.93;;
23543;SDS011;11950;51.230;4.012;2023-05-23T05:28:03;14.30;;;5.65;;
23543;SDS011;11950;51.230;4.012;2023-05-23T05:30:33;13.32;;;6.00;;
23543;SDS011;11950;51.230;4.012;2023-05-23T05:33:04;16.00;;;5.78;;
23543;SDS011;11950;51.230;4.012;2023-05-23T05:35:31;20.63;;;6.43;;
23543;SDS011;11950;51.230;4.012;2023-05-23T05:37:58;19.08;;;6.25;;
23543;SDS011;11950;51.230;4.012;2023-05-23T05:40:24;11.45;;;6.07;;
23543;SDS011;11950;51.230;4.012;2023-05-23T05:42:51;13.63;;;5.40;;
23543;SDS011;11950;51.230;4.012;2023-05-23T05:45:17;14.85;;;5.85;;
23543;SDS011;11950;51.230;4.012;2023-05-23T05:47:45;17.25;;;6.00;;
23543;SDS011;11950;51.230;4.012;2023-05-23T05:50:12;14.57;;;5.95;;
23543;SDS011;11950;51.230;4.012;2023-05-23T05:52:39;12.07;;;5.82;;
23543;SDS011;11950;51.230;4.012;2023-05-23T05:55:07;12.95;;;5.97;;
23543;SDS011;11950;51.230;4.012;2023-05-23T05:57:42;13.35;;;6.13;;
23543;SDS011;11950;51.230;4.012;2023-05-23T06:00:09;18.25;;;6.55;;
23543;SDS011;11950;51.230;4.012;2023-05-23T06:02:44;13.88;;;5.40;;
23543;SDS011;11950;51.230;4.012;2023-05-23T06:05:21;21.70;;;6.55;;
23543;SDS011;11950;51.230;4.012;2023-05-23T06:07:49;19.08;;;6.90;;
23543;SDS011;11950;51.230;4.012;2023-05-23T06:10:16;16.70;;;5.53;;
23543;SDS011;11950;51.230;4.012;2023-05-23T06:12:43;16.63;;;6.35;;
23543;SDS011;11950;51.230;4.012;2023-05-23T06:15:10;14.38;;;6.43;;
23543;SDS011;11950;51.230;4.012;2023-05-23T06:17:39;16.58;;;6.25;;
23543;SDS011;11950;51.230;4.012;2023-05-23T06:20:06;16.27;;;5.95;;
23543;SDS011;11950;51.230;4.012;2023-05-23T06:22:34;16.33;;;6.15;;
23543;SDS011;11950;51.230;4.012;2023-05-23T06:25:02;17.27;;;6.18;;
23543;SDS011;11950;51.230;4.012;2023-05-23T06:27:28;21.02;;;7.78;;
23543;SDS011;11950;51.230;4.012;2023-05-23T06:29:55;16.38;;;6.15;;
23543;SDS011;11950;51.230;4.012;2023-05-23T06:32:21;18.17;;;6.63;;
23543;SDS011;11950;51.230;4.012;2023-05-23T06:34:47;16.25;;;6.22;;
23543;SDS011;11950;51.230;4.012;2023-05-23T06:37:13;17.13;;;6.28;;
23543;SDS011;11950;51.230;4.012;2023-05-23T06:39:40;16.60;;;6.72;;
23543;SDS011;11950;51.230;4.012;2023-05-23T06:42:06;14.30;;;5.78;;
23543;SDS011;11950;51.230;4.012;2023-05-23T06:44:48;12.95;;;5.97;;
23543;SDS011;11950;51.230;4.012;2023-05-23T06:47:17;15.07;;;5.55;;
23543;SDS011;11950;51.230;4.012;2023-05-23T06:49:43;13.18;;;5.78;;
23543;SDS011;11950;51.230;4.012;2023-05-23T06:52:10;18.75;;;5.97;;
23543;SDS011;11950;51.230;4.012;2023-05-23T06:54:36;17.00;;;6.00;;
23543;SDS011;11950;51.230;4.012;2023-05-23T06:57:03;17.02;;;6.18;;
23543;SDS011;11950;51.230;4.012;2023-05-23T06:59:29;17.80;;;6.38;;
23543;SDS011;11950;51.230;4.012;2023-05-23T07:01:56;16.63;;;5.85;;
23543;SDS011;11950;51.230;4.012;2023-05-23T07:04:23;9.70;;;5.13;;
23543;SDS011;11950;51.230;4.012;2023-05-23T07:06:50;13.50;;;5.55;;
23543;SDS011;11950;51.230;4.012;2023-05-23T07:09:17;15.45;;;5.53;;
23543;SDS011;11950;51.230;4.012;2023-05-23T07:11:43;16.17;;;5.88;;
23543;SDS011;11950;51.230;4.012;2023-05-23T07:14:10;14.93;;;5.40;;
23543;SDS011;11950;51.230;4.012;2023-05-23T07:16:40;12.88;;;4.70;;
23543;SDS011;11950;51.230;4.012;2023-05-23T07:19:07;13.35;;;5.07;;
23543;SDS011;11950;51.230;4.012;2023-05-23T07:21:40;16.48;;;5.05;;
23543;SDS011;11950;51.230;4.012;2023-05-23T07:24:07;15.35;;;5.60;;
23543;SDS011;11950;51.230;4.012;2023-05-23T07:26:33;12.73;;;5.22;;
23543;SDS011;11950;51.230;4.012;2023-05-23T07:28:59;14.20;;;4.55;;
23543;SDS011;11950;51.230;4.012;2023-05-23T07:31:26;11.30;;;4.80;;
23543;SDS011;11950;51.230;4.012;2023-05-23T07:33:56;12.70;;;4.57;;
23543;SDS011;11950;51.230;4.012;2023-05-23T07:36:28;8.93;;;3.58;;
23543;SDS011;11950;51.230;4.012;2023-05-23T07:38:58;8.67;;;3.43;;
23543;SDS011;11950;51.230;4.012;2023-05-23T07:41:24;10.65;;;3.80;;
23543;SDS011;11950;51.230;4.012;2023-05-23T07:43:51;7.70;;;3.40;;
23543;SDS011;11950;51.230;4.012;2023-05-23T07:46:17;7.53;;;3.28;;
23543;SDS011;11950;51.230;4.012;2023-05-23T07:48:44;12.77;;;3.58;;
23543;SDS011;11950;51.230;4.012;2023-05-23T07:51:11;8.00;;;2.95;;
23543;SDS011;11950;51.230;4.012;2023-05-23T07:53:38;7.13;;;2.67;;
23543;SDS011;11950;51.230;4.012;2023-05-23T07:56:08;5.43;;;2.70;;
23543;SDS011;11950;51.230;4.012;2023-05-23T07:58:37;7.78;;;2.33;;
23543;SDS011;11950;51.230;4.012;2023-05-23T08:01:03;6.90;;;2.58;;
23543;SDS011;11950;51.230;4.012;2023-05-23T08:03:55;9.48;;;2.95;;
23543;SDS011;11950;51.230;4.012;2023-05-23T08:06:44;6.07;;;2.47;;
23543;SDS011;11950;51.230;4.012;2023-05-23T08:09:14;8.50;;;2.25;;
23543;SDS011;11950;51.230;4.012;2023-05-23T08:11:47;7.32;;;2.50;;
23543;SDS011;11950;51.230;4.012;2023-05-23T08:14:14;9.20;;;2.50;;
23543;SDS011;11950;51.230;4.012;2023-05-23T08:16:50;7.90;;;2.78;;
23543;SDS011;11950;51.230;4.012;2023-05-23T08:19:20;6.68;;;2.40;;
23543;SDS011;11950;51.230;4.012;2023-05-23T08:21:47;4.85;;;2.55;;
23543;SDS011;11950;51.230;4.012;2023-05-23T08:24:14;6.85;;;3.05;;
23543;SDS011;11950;51.230;4.012;2023-05-23T08:26:40;8.10;;;3.40;;
23543;SDS011;11950;51.230;4.012;2023-05-23T08:29:10;7.90;;;2.55;;
23543;SDS011;11950;51.230;4.012;2023-05-23T08:31:36;8.50;;;2.50;;
23543;SDS011;11950;51.230;4.012;2023-05-23T08:34:03;4.97;;;2.00;;
23543;SDS011;11950;51.230;4.012;2023-05-23T08:36:30;4.50;;;1.90;;
23543;SDS011;11950;51.230;4.012;2023-05-23T08:39:01;6.20;;;1.70;;
23543;SDS011;11950;51.230;4.012;2023-05-23T08:41:31;8.03;;;2.33;;
23543;SDS011;11950;51.230;4.012;2023-05-23T08:44:02;5.78;;;1.55;;
23543;SDS011;11950;51.230;4.012;2023-05-23T08:46:37;6.13;;;2.00;;
23543;SDS011;11950;51.230;4.012;2023-05-23T08:49:08;7.85;;;2.33;;
23543;SDS011;11950;51.230;4.012;2023-05-23T08:51:36;6.68;;;1.88;;
23543;SDS011;11950;51.230;4.012;2023-05-23T08:54:09;11.15;;;2.67;;
23543;SDS011;11950;51.230;4.012;2023-05-23T08:56:38;7.88;;;1.92;;
23543;SDS011;11950;51.230;4.012;2023-05-23T08:59:07;10.43;;;1.98;;
23543;SDS011;11950;51.230;4.012;2023-05-23T09:01:34;9.63;;;1.52;;
23543;SDS011;11950;51.230;4.012;2023-05-23T09:04:06;9.13;;;1.95;;
23543;SDS011;11950;51.230;4.012;2023-05-23T09:06:45;8.95;;;2.13;;
23543;SDS011;11950;51.230;4.012;2023-05-23T09:09:12;8.32;;;1.42;;
23543;SDS011;11950;51.230;4.012;2023-05-23T09:11:39;6.55;;;1.55;;
23543;SDS011;11950;51.230;4.012;2023-05-23T09:16:39;9.35;;;2.13;;
23543;SDS011;11950;51.230;4.012;2023-05-23T09:19:11;10.20;;;1.95;;
23543;SDS011;11950;51.230;4.012;2023-05-23T09:21:43;10.57;;;1.73;;
23543;SDS011;11950;51.230;4.012;2023-05-23T09:24:33;6.72;;;1.55;;
23543;SDS011;11950;51.230;4.012;2023-05-23T09:27:06;7.43;;;1.63;;
23543;SDS011;11950;51.230;4.012;2023-05-23T09:29:36;11.25;;;2.03;;
23543;SDS011;11950;51.230;4.012;2023-05-23T09:40:16;8.43;;;1.77;;
23543;SDS011;11950;51.230;4.012;2023-05-23T09:42:49;12.03;;;1.80;;
23543;SDS011;11950;51.230;4.012;2023-05-23T09:45:16;12.60;;;1.98;;
23543;SDS011;11950;51.230;4.012;2023-05-23T09:47:49;10.77;;;1.88;;
23543;SDS011;11950;51.230;4.012;2023-05-23T09:50:16;12.98;;;2.70;;
23543;SDS011;11950;51.230;4.012;2023-05-23T09:52:44;14.15;;;2.95;;
23543;SDS011;11950;51.230;4.012;2023-05-23T09:55:11;11.63;;;2.05;;
23543;SDS011;11950;51.230;4.012;2023-05-23T09:57:39;9.55;;;1.70;;
23543;SDS011;11950;51.230;4.012;2023-05-23T10:00:07;11.63;;;2.17;;
23543;SDS011;11950;51.230;4.012;2023-05-23T10:02:53;8.73;;;1.67;;
23543;SDS011;11950;51.230;4.012;2023-05-23T10:05:40;9.60;;;2.03;;
23543;SDS011;11950;51.230;4.012;2023-05-23T10:08:42;13.70;;;2.00;;
23543;SDS011;11950;51.230;4.012;2023-05-23T10:13:37;11.35;;;2.47;;
23543;SDS011;11950;51.230;4.012;2023-05-23T10:16:16;12.10;;;2.17;;
23543;SDS011;11950;51.230;4.012;2023-05-23T10:19:23;8.88;;;1.98;;
23543;SDS011;11950;51.230;4.012;2023-05-23T10:22:02;10.95;;;2.25;;
23543;SDS011;11950;51.230;4.012;2023-05-23T10:24:31;13.95;;;2.20;;
23543;SDS011;11950;51.230;4.012;2023-05-23T10:26:58;12.98;;;2.25;;
23543;SDS011;11950;51.230;4.012;2023-05-23T10:29:26;14.35;;;2.15;;
23543;SDS011;11950;51.230;4.012;2023-05-23T10:31:53;16.25;;;2.78;;
23543;SDS011;11950;51.230;4.012;2023-05-23T10:37:05;13.02;;;1.98;;
23543;SDS011;11950;51.230;4.012;2023-05-23T10:43:01;10.02;;;1.88;;
23543;SDS011;11950;51.230;4.012;2023-05-23T10:45:25;8.60;;;1.85;;
23543;SDS011;11950;51.230;4.012;2023-05-23T10:47:52;11.98;;;2.17;;
23543;SDS011;11950;51.230;4.012;2023-05-23T10:50:32;14.95;;;2.65;;
23543;SDS011;11950;51.230;4.012;2023-05-23T10:53:00;14.48;;;2.67;;
23543;SDS011;11950;51.230;4.012;2023-05-23T10:55:30;14.10;;;2.13;;
23543;SDS011;11950;51.230;4.012;2023-05-23T10:58:19;14.02;;;1.92;;
23543;SDS011;11950;51.230;4.012;2023-05-23T11:03:17;9.73;;;2.50;;
23543;SDS011;11950;51.230;4.012;2023-05-23T11:05:51;11.05;;;2.25;;
23543;SDS011;11950;51.230;4.012;2023-05-23T11:08:18;10.90;;;2.30;;
23543;SDS011;11950;51.230;4.012;2023-05-23T11:16:25;8.10;;;1.83;;
23543;SDS011;11950;51.230;4.012;2023-05-23T11:21:40;11.38;;;2.03;;
23543;SDS011;11950;51.230;4.012;2023-05-23T11:24:09;10.48;;;2.28;;
23543;SDS011;11950;51.230;4.012;2023-05-23T11:26:35;9.07;;;1.75;;
23543;SDS011;11950;51.230;4.012;2023-05-23T11:29:03;11.18;;;1.85;;
23543;SDS011;11950;51.230;4.012;2023-05-23T11:34:03;10.85;;;2.22;;
23543;SDS011;11950;51.230;4.012;2023-05-23T11:36:31;12.18;;;2.05;;
23543;SDS011;11950;51.230;4.012;2023-05-23T11:38:59;10.70;;;2.05;;
23543;SDS011;11950;51.230;4.012;2023-05-23T11:41:31;9.23;;;1.70;;
23543;SDS011;11950;51.230;4.012;2023-05-23T11:43:59;14.30;;;1.95;;
23543;SDS011;11950;51.230;4.012;2023-05-23T11:46:26;10.45;;;2.08;;
23543;SDS011;11950;51.230;4.012;2023-05-23T11:48:52;9.32;;;2.08;;
23543;SDS011;11950;51.230;4.012;2023-05-23T11:51:19;10.73;;;2.13;;
23543;SDS011;11950;51.230;4.012;2023-05-23T11:53:46;11.00;;;2.10;;
23543;SDS011;11950;51.230;4.012;2023-05-23T11:56:13;5.85;;;2.03;;
23543;SDS011;11950;51.230;4.012;2023-05-23T11:58:40;7.93;;;2.05;;
23543;SDS011;11950;51.230;4.012;2023-05-23T12:01:08;11.77;;;2.22;;
23543;SDS011;11950;51.230;4.012;2023-05-23T12:03:47;9.35;;;2.03;;
23543;SDS011;11950;51.230;4.012;2023-05-23T12:06:17;10.97;;;2.13;;
23543;SDS011;11950;51.230;4.012;2023-05-23T12:08:43;7.40;;;1.83;;
23543;SDS011;11950;51.230;4.012;2023-05-23T12:11:11;9.77;;;2.28;;
23543;SDS011;11950;51.230;4.012;2023-05-23T12:13:39;9.10;;;2.00;;
23543;SDS011;11950;51.230;4.012;2023-05-23T12:16:06;11.15;;;1.90;;
23543;SDS011;11950;51.230;4.012;2023-05-23T12:18:33;13.45;;;2.15;;
23543;SDS011;11950;51.230;4.012;2023-05-23T12:21:05;9.90;;;1.73;;
23543;SDS011;11950;51.230;4.012;2023-05-23T12:23:33;12.18;;;1.80;;
23543;SDS011;11950;51.230;4.012;2023-05-23T12:26:02;7.60;;;1.50;;
23543;SDS011;11950;51.230;4.012;2023-05-23T12:28:34;7.45;;;1.80;;
23543;SDS011;11950;51.230;4.012;2023-05-23T12:31:07;9.57;;;1.90;;
23543;SDS011;11950;51.230;4.012;2023-05-23T12:33:36;10.27;;;2.33;;
23543;SDS011;11950;51.230;4.012;2023-05-23T12:36:04;11.40;;;2.42;;
23543;SDS011;11950;51.230;4.012;2023-05-23T12:38:34;10.38;;;2.10;;
23543;SDS011;11950;51.230;4.012;2023-05-23T12:43:38;11.68;;;2.20;;
23543;SDS011;11950;51.230;4.012;2023-05-23T12:46:05;9.90;;;1.88;;
23543;SDS011;11950;51.230;4.012;2023-05-23T12:48:32;11.93;;;2.58;;
23543;SDS011;11950;51.230;4.012;2023-05-23T12:50:59;11.82;;;1.80;;
23543;SDS011;11950;51.230;4.012;2023-05-23T12:53:28;9.52;;;1.88;;
23543;SDS011;11950;51.230;4.012;2023-05-23T12:55:54;13.02;;;1.92;;
23543;SDS011;11950;51.230;4.012;2023-05-23T12:58:20;8.52;;;1.90;;
23543;SDS011;11950;51.230;4.012;2023-05-23T13:00:47;9.45;;;2.25;;
23543;SDS011;11950;51.230;4.012;2023-05-23T13:03:13;7.45;;;1.80;;
23543;SDS011;11950;51.230;4.012;2023-05-23T13:05:39;6.28;;;1.42;;
23543;SDS011;11950;51.230;4.012;2023-05-23T13:08:06;5.15;;;1.67;;
23543;SDS011;11950;51.230;4.012;2023-05-23T13:10:32;8.73;;;1.60;;
23543;SDS011;11950;51.230;4.012;2023-05-23T13:12:58;13.43;;;2.30;;
23543;SDS011;11950;51.230;4.012;2023-05-23T13:15:24;7.53;;;1.63;;
23543;SDS011;11950;51.230;4.012;2023-05-23T13:17:50;9.75;;;2.00;;
23543;SDS011;11950;51.230;4.012;2023-05-23T13:20:17;13.00;;;2.35;;
23543;SDS011;11950;51.230;4.012;2023-05-23T13:22:43;9.82;;;1.83;;
23543;SDS011;11950;51.230;4.012;2023-05-23T13:25:09;11.95;;;2.00;;
23543;SDS011;11950;51.230;4.012;2023-05-23T13:27:36;7.38;;;1.67;;
23543;SDS011;11950;51.230;4.012;2023-05-23T13:30:02;10.65;;;1.77;;
23543;SDS011;11950;51.230;4.012;2023-05-23T13:32:29;7.95;;;1.95;;
23543;SDS011;11950;51.230;4.012;2023-05-23T13:34:55;13.00;;;1.88;;
23543;SDS011;11950;51.230;4.012;2023-05-23T13:37:22;10.32;;;2.00;;
23543;SDS011;11950;51.230;4.012;2023-05-23T13:39:48;10.88;;;1.75;;
23543;SDS011;11950;51.230;4.012;2023-05-23T13:42:14;6.55;;;2.00;;
23543;SDS011;11950;51.230;4.012;2023-05-23T13:44:40;9.60;;;1.60;;
23543;SDS011;11950;51.230;4.012;2023-05-23T13:47:10;10.90;;;2.25;;
23543;SDS011;11950;51.230;4.012;2023-05-23T13:49:38;8.75;;;1.70;;
23543;SDS011;11950;51.230;4.012;2023-05-23T13:52:05;11.60;;;1.77;;
23543;SDS011;11950;51.230;4.012;2023-05-23T13:54:31;12.93;;;2.50;;
23543;SDS011;11950;51.230;4.012;2023-05-23T13:56:58;10.93;;;1.67;;
23543;SDS011;11950;51.230;4.012;2023-05-23T13:59:26;6.07;;;1.90;;
23543;SDS011;11950;51.230;4.012;2023-05-23T14:01:52;9.75;;;1.90;;
23543;SDS011;11950;51.230;4.012;2023-05-23T14:04:19;11.57;;;1.77;;
23543;SDS011;11950;51.230;4.012;2023-05-23T14:06:45;8.10;;;2.08;;
23543;SDS011;11950;51.230;4.012;2023-05-23T14:09:11;9.40;;;2.08;;
23543;SDS011;11950;51.230;4.012;2023-05-23T14:11:38;8.15;;;1.70;;
23543;SDS011;11950;51.230;4.012;2023-05-23T14:14:04;11.60;;;1.95;;
23543;SDS011;11950;51.230;4.012;2023-05-23T14:16:30;6.28;;;1.50;;
23543;SDS011;11950;51.230;4.012;2023-05-23T14:18:57;7.43;;;1.33;;
23543;SDS011;11950;51.230;4.012;2023-05-23T14:21:23;10.45;;;1.33;;
23543;SDS011;11950;51.230;4.012;2023-05-23T14:23:49;14.82;;;1.90;;
23543;SDS011;11950;51.230;4.012;2023-05-23T14:26:16;8.30;;;1.67;;
23543;SDS011;11950;51.230;4.012;2023-05-23T14:28:42;6.82;;;1.48;;
23543;SDS011;11950;51.230;4.012;2023-05-23T14:31:08;9.63;;;1.73;;
23543;SDS011;11950;51.230;4.012;2023-05-23T14:33:34;9.38;;;1.80;;
23543;SDS011;11950;51.230;4.012;2023-05-23T14:36:00;9.48;;;1.80;;
23543;SDS011;11950;51.230;4.012;2023-05-23T14:38:27;11.75;;;1.65;;
23543;SDS011;11950;51.230;4.012;2023-05-23T14:40:53;9.20;;;2.17;;
23543;SDS011;11950;51.230;4.012;2023-05-23T14:43:20;7.10;;;1.52;;
23543;SDS011;11950;51.230;4.012;2023-05-23T14:45:46;6.47;;;1.48;;
23543;SDS011;11950;51.230;4.012;2023-05-23T14:48:12;12.63;;;1.80;;
23543;SDS011;11950;51.230;4.012;2023-05-23T14:50:39;8.00;;;1.52;;
23543;SDS011;11950;51.230;4.012;2023-05-23T14:53:05;9.75;;;1.77;;
23543;SDS011;11950;51.230;4.012;2023-05-23T14:55:31;9.18;;;1.50;;
23543;SDS011;11950;51.230;4.012;2023-05-23T14:57:57;6.10;;;1.55;;
23543;SDS011;11950;51.230;4.012;2023-05-23T15:00:24;9.18;;;1.55;;
23543;SDS011;11950;51.230;4.012;2023-05-23T15:02:50;7.25;;;1.30;;
23543;SDS011;11950;51.230;4.012;2023-05-23T15:05:17;10.02;;;1.40;;
23543;SDS011;11950;51.230;4.012;2023-05-23T15:07:43;12.10;;;1.50;;
23543;SDS011;11950;51.230;4.012;2023-05-23T15:10:10;11.40;;;1.50;;
23543;SDS011;11950;51.230;4.012;2023-05-23T15:12:36;6.57;;;1.55;;
23543;SDS011;11950;51.230;4.012;2023-05-23T15:15:02;9.30;;;1.52;;
23543;SDS011;11950;51.230;4.012;2023-05-23T15:17:29;8.10;;;1.45;;
23543;SDS011;11950;51.230;4.012;2023-05-23T15:19:56;8.27;;;1.48;;
23543;SDS011;11950;51.230;4.012;2023-05-23T15:22:23;7.63;;;1.30;;
23543;SDS011;11950;51.230;4.012;2023-05-23T15:24:50;5.15;;;1.20;;
23543;SDS011;11950;51.230;4.012;2023-05-23T15:27:16;7.75;;;1.60;;
23543;SDS011;11950;51.230;4.012;2023-05-23T15:29:44;9.02;;;1.52;;